Decoded Metar for KSPA (SPARTANBURG VOR in SC, USA) (IATA:SPA) | Meteo·Mobile Aviation Weather
aviador You're here:

KSPA Decoded Metar

SPARTANBURG VOR in SC, USA
Report Time2018-08-19 05:15:00
UTC Time2018-08-19 05:28:26
Flight Rules ifr IFR
Wind230° at 03 kt
W.Decomp.*RWY 23: 3.0 kt HW 0.3 kt RCW
W.Rank230° ranks 1
Current wind is below 230° avg. (5.7)
Visibility9999 m
Phenomena:N/A
Clouds:Overcast 005 Hf
Expected CloudBase > 400 ft AGL from Temp-Dew spread
Ceiling500 ft
Temp22°C (ISA +9)
Dew Point21°C (94% RH)
QNH1015 hPa
Density Alt2,303 ft
Elevation994 ft
Report Wrong Elevation
Raw Report
METAR KSPA 190515Z AUTO 23003KT 10SM OVC005 22/21 A2996 RMK AO2=

Extra information for KSPA:More info

Metar Taf Metar & Taf Last 4 Metars F.Rules Stats Wind Profile Meteogram Temp Stats Airport Information Weather charts Add Link Nearby VenuesMetar ALERT Operation Metar Decoded Social comments

AIRNAV info for KSPA